sensor_id;sensor_type;location;lat;lon;timestamp;pressure;altitude;pressure_sealevel;temperature;humidity
69689;BME280;56932;38.402;-96.176;2023-04-07T00:01:33;98760.87;;;19.93;15.58
69689;BME280;56932;38.402;-96.176;2023-04-07T00:03:59;98759.55;;;19.92;15.33
69689;BME280;56932;38.402;-96.176;2023-04-07T00:06:24;98756.79;;;20.04;14.57
69689;BME280;56932;38.402;-96.176;2023-04-07T00:08:50;98756.49;;;19.61;14.79
69689;BME280;56932;38.402;-96.176;2023-04-07T00:11:15;98762.01;;;19.83;14.90
69689;BME280;56932;38.402;-96.176;2023-04-07T00:13:41;98761.01;;;19.49;15.19
69689;BME280;56932;38.402;-96.176;2023-04-07T00:16:06;98764.74;;;20.06;14.86
69689;BME280;56932;38.402;-96.176;2023-04-07T00:18:31;98762.90;;;20.02;14.91
69689;BME280;56932;38.402;-96.176;2023-04-07T00:20:56;98767.80;;;19.64;15.03
69689;BME280;56932;38.402;-96.176;2023-04-07T00:23:22;98768.75;;;20.41;15.04
69689;BME280;56932;38.402;-96.176;2023-04-07T00:25:48;98772.17;;;18.98;15.37
69689;BME280;56932;38.402;-96.176;2023-04-07T00:28:12;98772.92;;;19.65;15.04
69689;BME280;56932;38.402;-96.176;2023-04-07T00:30:38;98774.33;;;20.10;14.80
69689;BME280;56932;38.402;-96.176;2023-04-07T00:33:03;98776.45;;;19.93;15.11
69689;BME280;56932;38.402;-96.176;2023-04-07T00:35:29;98775.23;;;19.80;15.55
69689;BME280;56932;38.402;-96.176;2023-04-07T00:37:54;98778.13;;;19.42;15.84
69689;BME280;56932;38.402;-96.176;2023-04-07T00:40:20;98777.46;;;19.55;15.59
69689;BME280;56932;38.402;-96.176;2023-04-07T00:42:45;98775.19;;;19.03;15.97
69689;BME280;56932;38.402;-96.176;2023-04-07T00:45:10;98774.36;;;19.42;16.12
69689;BME280;56932;38.402;-96.176;2023-04-07T00:47:36;98771.15;;;18.89;16.71
69689;BME280;56932;38.402;-96.176;2023-04-07T00:50:03;98771.37;;;19.22;16.28
69689;BME280;56932;38.402;-96.176;2023-04-07T00:52:27;98770.35;;;19.10;16.78
69689;BME280;56932;38.402;-96.176;2023-04-07T00:54:53;98771.97;;;18.45;16.61
69689;BME280;56932;38.402;-96.176;2023-04-07T00:57:18;98771.72;;;19.10;16.88
69689;BME280;56932;38.402;-96.176;2023-04-07T00:59:44;98773.05;;;19.02;16.59
69689;BME280;56932;38.402;-96.176;2023-04-07T01:02:13;98774.71;;;19.85;16.40
69689;BME280;56932;38.402;-96.176;2023-04-07T01:04:41;98774.64;;;19.85;16.63
69689;BME280;56932;38.402;-96.176;2023-04-07T01:07:05;98775.40;;;19.25;17.00
69689;BME280;56932;38.402;-96.176;2023-04-07T01:09:31;98771.38;;;20.27;16.58
69689;BME280;56932;38.402;-96.176;2023-04-07T01:11:56;98774.21;;;19.70;16.43
69689;BME280;56932;38.402;-96.176;2023-04-07T01:14:17;98774.14;;;19.76;16.85
69689;BME280;56932;38.402;-96.176;2023-04-07T01:16:47;98776.96;;;19.29;17.13
69689;BME280;56932;38.402;-96.176;2023-04-07T01:19:14;98778.59;;;19.97;16.76
69689;BME280;56932;38.402;-96.176;2023-04-07T01:21:34;98776.98;;;19.88;17.05
69689;BME280;56932;38.402;-96.176;2023-04-07T01:24:15;98779.12;;;19.97;16.95
69689;BME280;56932;38.402;-96.176;2023-04-07T01:26:27;98778.84;;;19.23;17.81
69689;BME280;56932;38.402;-96.176;2023-04-07T01:29:02;98781.32;;;19.15;17.64
69689;BME280;56932;38.402;-96.176;2023-04-07T01:31:16;98782.17;;;19.28;17.86
69689;BME280;56932;38.402;-96.176;2023-04-07T01:33:44;98785.76;;;19.10;17.87
69689;BME280;56932;38.402;-96.176;2023-04-07T01:36:07;98785.81;;;19.88;17.56
69689;BME280;56932;38.402;-96.176;2023-04-07T01:38:32;98786.70;;;20.15;17.71
69689;BME280;56932;38.402;-96.176;2023-04-07T01:40:58;98788.59;;;19.76;17.76
69689;BME280;56932;38.402;-96.176;2023-04-07T01:43:23;98790.91;;;19.57;17.91
69689;BME280;56932;38.402;-96.176;2023-04-07T01:45:48;98793.60;;;19.08;18.16
69689;BME280;56932;38.402;-96.176;2023-04-07T01:48:13;98794.14;;;19.26;18.21
69689;BME280;56932;38.402;-96.176;2023-04-07T01:50:40;98795.20;;;20.01;17.66
69689;BME280;56932;38.402;-96.176;2023-04-07T01:53:04;98798.42;;;19.67;17.86
69689;BME280;56932;38.402;-96.176;2023-04-07T01:55:30;98802.10;;;19.85;18.04
69689;BME280;56932;38.402;-96.176;2023-04-07T01:57:55;98805.01;;;18.44;18.75
69689;BME280;56932;38.402;-96.176;2023-04-07T02:00:20;98805.48;;;20.19;18.18
69689;BME280;56932;38.402;-96.176;2023-04-07T02:02:49;98807.31;;;19.77;18.01
69689;BME280;56932;38.402;-96.176;2023-04-07T02:05:14;98811.41;;;20.19;18.09
69689;BME280;56932;38.402;-96.176;2023-04-07T02:07:41;98811.90;;;19.72;18.49
69689;BME280;56932;38.402;-96.176;2023-04-07T02:10:03;98817.11;;;18.92;18.86
69689;BME280;56932;38.402;-96.176;2023-04-07T02:12:28;98825.33;;;19.26;18.94
69689;BME280;56932;38.402;-96.176;2023-04-07T02:14:53;98829.94;;;19.37;18.57
69689;BME280;56932;38.402;-96.176;2023-04-07T02:17:19;98834.63;;;20.19;18.54
69689;BME280;56932;38.402;-96.176;2023-04-07T02:19:45;98835.70;;;19.33;18.95
69689;BME280;56932;38.402;-96.176;2023-04-07T02:22:10;98841.60;;;19.79;18.90
69689;BME280;56932;38.402;-96.176;2023-04-07T02:24:34;98847.35;;;20.32;18.78
69689;BME280;56932;38.402;-96.176;2023-04-07T02:27:00;98851.55;;;19.48;19.27
69689;BME280;56932;38.402;-96.176;2023-04-07T02:29:25;98857.07;;;19.81;19.28
69689;BME280;56932;38.402;-96.176;2023-04-07T02:31:50;98864.52;;;19.07;19.13
69689;BME280;56932;38.402;-96.176;2023-04-07T02:34:15;98864.71;;;19.46;19.22
69689;BME280;56932;38.402;-96.176;2023-04-07T02:36:42;98865.01;;;19.57;19.17
69689;BME280;56932;38.402;-96.176;2023-04-07T02:39:07;98866.16;;;19.30;19.26
69689;BME280;56932;38.402;-96.176;2023-04-07T02:41:32;98868.93;;;19.74;19.47
69689;BME280;56932;38.402;-96.176;2023-04-07T02:43:57;98868.74;;;19.47;19.33
69689;BME280;56932;38.402;-96.176;2023-04-07T02:46:23;98870.25;;;20.01;19.05
69689;BME280;56932;38.402;-96.176;2023-04-07T02:48:48;98871.98;;;20.16;18.95
69689;BME280;56932;38.402;-96.176;2023-04-07T02:51:13;98875.34;;;19.69;19.27
69689;BME280;56932;38.402;-96.176;2023-04-07T02:53:39;98878.43;;;19.31;19.54
69689;BME280;56932;38.402;-96.176;2023-04-07T02:56:04;98883.65;;;19.83;19.12
69689;BME280;56932;38.402;-96.176;2023-04-07T02:58:30;98886.86;;;19.93;19.40
69689;BME280;56932;38.402;-96.176;2023-04-07T03:00:55;98889.59;;;19.26;19.17
69689;BME280;56932;38.402;-96.176;2023-04-07T03:03:21;98893.30;;;19.65;19.40
69689;BME280;56932;38.402;-96.176;2023-04-07T03:05:46;98897.65;;;19.30;19.27
69689;BME280;56932;38.402;-96.176;2023-04-07T03:08:11;98898.03;;;19.89;19.18
69689;BME280;56932;38.402;-96.176;2023-04-07T03:10:37;98902.04;;;20.00;19.44
69689;BME280;56932;38.402;-96.176;2023-04-07T03:13:02;98900.66;;;19.43;19.93
69689;BME280;56932;38.402;-96.176;2023-04-07T03:15:28;98902.77;;;19.78;19.43
69689;BME280;56932;38.402;-96.176;2023-04-07T03:17:53;98903.17;;;18.79;19.82
69689;BME280;56932;38.402;-96.176;2023-04-07T03:20:18;98904.87;;;20.01;19.43
69689;BME280;56932;38.402;-96.176;2023-04-07T03:22:44;98909.94;;;19.12;19.91
69689;BME280;56932;38.402;-96.176;2023-04-07T03:25:10;98910.13;;;19.83;19.60
69689;BME280;56932;38.402;-96.176;2023-04-07T03:27:35;98913.52;;;20.41;19.30
69689;BME280;56932;38.402;-96.176;2023-04-07T03:30:00;98916.79;;;19.69;19.53
69689;BME280;56932;38.402;-96.176;2023-04-07T03:32:25;98917.12;;;19.95;19.63
69689;BME280;56932;38.402;-96.176;2023-04-07T03:34:51;98919.96;;;19.37;19.58
69689;BME280;56932;38.402;-96.176;2023-04-07T03:37:16;98917.78;;;19.73;19.74
69689;BME280;56932;38.402;-96.176;2023-04-07T03:39:42;98914.71;;;19.73;19.74
69689;BME280;56932;38.402;-96.176;2023-04-07T03:42:07;98914.10;;;19.96;19.73
69689;BME280;56932;38.402;-96.176;2023-04-07T03:44:33;98908.82;;;19.90;19.79
69689;BME280;56932;38.402;-96.176;2023-04-07T03:46:59;98907.30;;;19.01;20.33
69689;BME280;56932;38.402;-96.176;2023-04-07T03:49:24;98909.83;;;19.11;20.21
69689;BME280;56932;38.402;-96.176;2023-04-07T03:51:50;98909.87;;;17.77;20.93
69689;BME280;56932;38.402;-96.176;2023-04-07T03:54:15;98909.03;;;18.53;20.70
69689;BME280;56932;38.402;-96.176;2023-04-07T03:56:41;98911.47;;;19.76;19.96
69689;BME280;56932;38.402;-96.176;2023-04-07T03:59:06;98910.64;;;19.47;20.28
69689;BME280;56932;38.402;-96.176;2023-04-07T04:01:31;98911.19;;;19.97;20.15
69689;BME280;56932;38.402;-96.176;2023-04-07T04:03:56;98911.77;;;19.48;20.17
69689;BME280;56932;38.402;-96.176;2023-04-07T04:06:22;98913.47;;;19.61;20.10
69689;BME280;56932;38.402;-96.176;2023-04-07T04:08:48;98911.19;;;18.91;20.21
69689;BME280;56932;38.402;-96.176;2023-04-07T04:11:13;98912.74;;;19.67;20.14
69689;BME280;56932;38.402;-96.176;2023-04-07T04:13:38;98916.83;;;19.30;20.42
69689;BME280;56932;38.402;-96.176;2023-04-07T04:16:04;98921.64;;;19.45;20.34
69689;BME280;56932;38.402;-96.176;2023-04-07T04:18:29;98921.66;;;19.83;20.20
69689;BME280;56932;38.402;-96.176;2023-04-07T04:20:54;98925.13;;;18.78;20.52
69689;BME280;56932;38.402;-96.176;2023-04-07T04:23:20;98923.41;;;19.89;20.25
69689;BME280;56932;38.402;-96.176;2023-04-07T04:25:46;98928.11;;;18.79;20.41
69689;BME280;56932;38.402;-96.176;2023-04-07T04:28:11;98931.08;;;19.61;20.43
69689;BME280;56932;38.402;-96.176;2023-04-07T04:30:36;98935.35;;;19.93;20.35
69689;BME280;56932;38.402;-96.176;2023-04-07T04:33:02;98937.28;;;19.51;20.31
69689;BME280;56932;38.402;-96.176;2023-04-07T04:35:28;98940.14;;;19.96;20.10
69689;BME280;56932;38.402;-96.176;2023-04-07T04:37:53;98944.23;;;18.96;20.39
69689;BME280;56932;38.402;-96.176;2023-04-07T04:40:18;98944.86;;;20.05;20.30
69689;BME280;56932;38.402;-96.176;2023-04-07T04:42:44;98951.61;;;19.29;20.55
69689;BME280;56932;38.402;-96.176;2023-04-07T04:45:09;98953.52;;;19.39;20.52
69689;BME280;56932;38.402;-96.176;2023-04-07T04:47:34;98954.05;;;19.90;20.43
69689;BME280;56932;38.402;-96.176;2023-04-07T04:50:00;98954.00;;;19.44;20.53
69689;BME280;56932;38.402;-96.176;2023-04-07T04:52:25;98948.25;;;19.80;20.41
69689;BME280;56932;38.402;-96.176;2023-04-07T04:54:51;98948.12;;;18.39;20.96
69689;BME280;56932;38.402;-96.176;2023-04-07T04:57:16;98946.47;;;19.15;20.75
69689;BME280;56932;38.402;-96.176;2023-04-07T04:59:41;98947.74;;;19.62;20.37
69689;BME280;56932;38.402;-96.176;2023-04-07T05:02:07;98948.62;;;19.72;20.30
69689;BME280;56932;38.402;-96.176;2023-04-07T05:04:32;98950.71;;;19.41;20.45
69689;BME280;56932;38.402;-96.176;2023-04-07T05:06:57;98950.86;;;19.16;20.74
69689;BME280;56932;38.402;-96.176;2023-04-07T05:09:23;98951.66;;;19.76;20.62
69689;BME280;56932;38.402;-96.176;2023-04-07T05:11:48;98954.28;;;18.88;20.56
69689;BME280;56932;38.402;-96.176;2023-04-07T05:14:13;98949.87;;;19.64;20.32
69689;BME280;56932;38.402;-96.176;2023-04-07T05:16:39;98951.05;;;19.50;20.63
69689;BME280;56932;38.402;-96.176;2023-04-07T05:19:04;98950.56;;;19.20;20.88
69689;BME280;56932;38.402;-96.176;2023-04-07T05:21:31;98952.09;;;19.75;20.67
69689;BME280;56932;38.402;-96.176;2023-04-07T05:23:54;98953.86;;;19.32;20.67
69689;BME280;56932;38.402;-96.176;2023-04-07T05:26:20;98956.37;;;19.78;20.64
69689;BME280;56932;38.402;-96.176;2023-04-07T05:28:46;98953.72;;;18.61;21.01
69689;BME280;56932;38.402;-96.176;2023-04-07T05:31:11;98956.87;;;19.63;20.59
69689;BME280;56932;38.402;-96.176;2023-04-07T05:33:36;98956.29;;;19.81;20.62
69689;BME280;56932;38.402;-96.176;2023-04-07T05:36:02;98956.84;;;19.18;20.81
69689;BME280;56932;38.402;-96.176;2023-04-07T05:38:27;98960.19;;;19.69;20.82
69689;BME280;56932;38.402;-96.176;2023-04-07T05:40:53;98962.07;;;18.55;21.04
69689;BME280;56932;38.402;-96.176;2023-04-07T05:43:19;98966.36;;;19.33;21.01
69689;BME280;56932;38.402;-96.176;2023-04-07T05:45:45;98967.45;;;18.93;21.25
69689;BME280;56932;38.402;-96.176;2023-04-07T05:48:10;98970.88;;;18.50;21.76
69689;BME280;56932;38.402;-96.176;2023-04-07T05:50:35;98966.42;;;19.53;21.16
69689;BME280;56932;38.402;-96.176;2023-04-07T05:53:00;98962.17;;;19.16;21.12
69689;BME280;56932;38.402;-96.176;2023-04-07T05:55:26;98962.27;;;19.94;20.87
69689;BME280;56932;38.402;-96.176;2023-04-07T05:57:52;98958.30;;;18.77;21.09
69689;BME280;56932;38.402;-96.176;2023-04-07T06:00:17;98957.62;;;19.06;21.48
69689;BME280;56932;38.402;-96.176;2023-04-07T06:02:43;98956.95;;;19.10;21.46
69689;BME280;56932;38.402;-96.176;2023-04-07T06:05:08;98951.79;;;18.86;21.48
69689;BME280;56932;38.402;-96.176;2023-04-07T06:07:34;98948.42;;;19.62;20.91
69689;BME280;56932;38.402;-96.176;2023-04-07T06:09:59;98949.56;;;19.24;20.99
69689;BME280;56932;38.402;-96.176;2023-04-07T06:12:24;98949.84;;;19.71;21.21
69689;BME280;56932;38.402;-96.176;2023-04-07T06:14:52;98948.96;;;18.75;21.28
69689;BME280;56932;38.402;-96.176;2023-04-07T06:17:15;98946.04;;;18.94;21.66
69689;BME280;56932;38.402;-96.176;2023-04-07T06:19:41;98948.79;;;19.34;21.36
69689;BME280;56932;38.402;-96.176;2023-04-07T06:22:07;98947.92;;;19.20;21.66
69689;BME280;56932;38.402;-96.176;2023-04-07T06:24:32;98945.24;;;19.70;21.30
69689;BME280;56932;38.402;-96.176;2023-04-07T06:26:59;98945.76;;;17.92;22.39
69689;BME280;56932;38.402;-96.176;2023-04-07T06:29:23;98938.32;;;18.89;21.77
69689;BME280;56932;38.402;-96.176;2023-04-07T06:31:49;98939.75;;;18.84;21.43
69689;BME280;56932;38.402;-96.176;2023-04-07T06:34:15;98941.55;;;19.35;21.59
69689;BME280;56932;38.402;-96.176;2023-04-07T06:36:40;98941.98;;;19.63;21.64
69689;BME280;56932;38.402;-96.176;2023-04-07T06:39:05;98940.30;;;18.80;22.08
69689;BME280;56932;38.402;-96.176;2023-04-07T06:41:33;98936.18;;;19.10;21.81
69689;BME280;56932;38.402;-96.176;2023-04-07T06:43:57;98932.10;;;18.36;21.85
69689;BME280;56932;38.402;-96.176;2023-04-07T06:46:22;98928.83;;;19.71;21.32
69689;BME280;56932;38.402;-96.176;2023-04-07T06:48:48;98927.78;;;18.15;22.00
69689;BME280;56932;38.402;-96.176;2023-04-07T06:51:13;98925.04;;;19.06;21.89
69689;BME280;56932;38.402;-96.176;2023-04-07T06:53:40;98926.78;;;18.77;22.17
69689;BME280;56932;38.402;-96.176;2023-04-07T06:56:07;98922.21;;;18.94;22.00
69689;BME280;56932;38.402;-96.176;2023-04-07T06:58:31;98919.56;;;18.88;22.10
69689;BME280;56932;38.402;-96.176;2023-04-07T07:00:56;98917.07;;;18.42;22.14
69689;BME280;56932;38.402;-96.176;2023-04-07T07:03:22;98918.19;;;19.12;21.94
69689;BME280;56932;38.402;-96.176;2023-04-07T07:05:47;98921.94;;;17.59;22.66
69689;BME280;56932;38.402;-96.176;2023-04-07T07:08:12;98921.58;;;18.70;22.22
69689;BME280;56932;38.402;-96.176;2023-04-07T07:10:38;98923.41;;;19.75;21.78
69689;BME280;56932;38.402;-96.176;2023-04-07T07:13:03;98920.31;;;18.49;22.60
69689;BME280;56932;38.402;-96.176;2023-04-07T07:15:29;98919.54;;;18.32;22.77
69689;BME280;56932;38.402;-96.176;2023-04-07T07:17:54;98914.98;;;17.85;22.39
69689;BME280;56932;38.402;-96.176;2023-04-07T07:20:20;98910.84;;;18.59;22.35
69689;BME280;56932;38.402;-96.176;2023-04-07T07:22:45;98907.79;;;18.36;22.42
69689;BME280;56932;38.402;-96.176;2023-04-07T07:25:10;98906.76;;;18.86;22.13
69689;BME280;56932;38.402;-96.176;2023-04-07T07:27:36;98907.63;;;19.24;22.04
69689;BME280;56932;38.402;-96.176;2023-04-07T07:30:02;98906.65;;;18.51;22.63
69689;BME280;56932;38.402;-96.176;2023-04-07T07:32:27;98902.82;;;18.90;22.35
69689;BME280;56932;38.402;-96.176;2023-04-07T07:34:52;98902.79;;;17.91;22.44
69689;BME280;56932;38.402;-96.176;2023-04-07T07:37:18;98905.19;;;18.24;23.00
69689;BME280;56932;38.402;-96.176;2023-04-07T07:39:44;98904.41;;;17.94;22.92
69689;BME280;56932;38.402;-96.176;2023-04-07T07:42:08;98897.83;;;18.88;22.47
69689;BME280;56932;38.402;-96.176;2023-04-07T07:44:34;98898.49;;;18.46;22.76
69689;BME280;56932;38.402;-96.176;2023-04-07T07:47:00;98895.46;;;18.87;22.49
69689;BME280;56932;38.402;-96.176;2023-04-07T07:49:25;98897.32;;;18.87;22.45
69689;BME280;56932;38.402;-96.176;2023-04-07T07:51:51;98897.56;;;18.36;22.26
69689;BME280;56932;38.402;-96.176;2023-04-07T07:54:16;98898.15;;;18.49;22.79
69689;BME280;56932;38.402;-96.176;2023-04-07T07:56:42;98894.49;;;18.44;22.64
69689;BME280;56932;38.402;-96.176;2023-04-07T07:59:07;98893.97;;;18.31;22.88
69689;BME280;56932;38.402;-96.176;2023-04-07T08:01:33;98891.00;;;18.58;22.88
69689;BME280;56932;38.402;-96.176;2023-04-07T08:03:58;98888.68;;;18.28;22.53
69689;BME280;56932;38.402;-96.176;2023-04-07T08:06:24;98889.91;;;18.54;22.89
69689;BME280;56932;38.402;-96.176;2023-04-07T08:08:50;98882.90;;;18.23;22.58
69689;BME280;56932;38.402;-96.176;2023-04-07T08:11:15;98879.85;;;18.56;22.51
69689;BME280;56932;38.402;-96.176;2023-04-07T08:13:41;98883.94;;;18.98;22.54
69689;BME280;56932;38.402;-96.176;2023-04-07T08:16:06;98885.09;;;18.71;22.53
69689;BME280;56932;38.402;-96.176;2023-04-07T08:18:31;98887.05;;;18.63;22.57
69689;BME280;56932;38.402;-96.176;2023-04-07T08:20:56;98888.61;;;18.68;22.15
69689;BME280;56932;38.402;-96.176;2023-04-07T08:23:21;98882.18;;;18.95;22.31
69689;BME280;56932;38.402;-96.176;2023-04-07T08:25:47;98880.17;;;18.31;22.43
69689;BME280;56932;38.402;-96.176;2023-04-07T08:28:12;98874.88;;;18.70;22.46
69689;BME280;56932;38.402;-96.176;2023-04-07T08:30:38;98878.40;;;18.10;22.93
69689;BME280;56932;38.402;-96.176;2023-04-07T08:33:05;98874.43;;;18.15;22.54
69689;BME280;56932;38.402;-96.176;2023-04-07T08:35:29;98876.22;;;18.52;22.58
69689;BME280;56932;38.402;-96.176;2023-04-07T08:37:54;98878.07;;;18.18;22.50
69689;BME280;56932;38.402;-96.176;2023-04-07T08:40:20;98879.23;;;18.76;22.38
69689;BME280;56932;38.402;-96.176;2023-04-07T08:42:47;98882.91;;;17.62;22.75
69689;BME280;56932;38.402;-96.176;2023-04-07T08:45:12;98882.65;;;18.29;22.58
69689;BME280;56932;38.402;-96.176;2023-04-07T08:47:36;98880.40;;;18.51;22.60
69689;BME280;56932;38.402;-96.176;2023-04-07T08:50:02;98882.48;;;18.03;22.74
69689;BME280;56932;38.402;-96.176;2023-04-07T08:52:32;98878.09;;;18.61;22.46
69689;BME280;56932;38.402;-96.176;2023-04-07T08:54:53;98875.15;;;18.01;22.35
69689;BME280;56932;38.402;-96.176;2023-04-07T08:57:17;98879.51;;;18.25;22.75
69689;BME280;56932;38.402;-96.176;2023-04-07T08:59:43;98876.74;;;18.43;22.24
69689;BME280;56932;38.402;-96.176;2023-04-07T09:02:09;98879.71;;;18.03;22.95
69689;BME280;56932;38.402;-96.176;2023-04-07T09:04:34;98882.64;;;18.52;22.76
69689;BME280;56932;38.402;-96.176;2023-04-07T09:07:00;98887.74;;;17.67;22.90
69689;BME280;56932;38.402;-96.176;2023-04-07T09:09:25;98888.64;;;18.49;22.55
69689;BME280;56932;38.402;-96.176;2023-04-07T09:11:52;98888.06;;;18.11;22.49
69689;BME280;56932;38.402;-96.176;2023-04-07T09:14:16;98882.88;;;18.67;22.37
69689;BME280;56932;38.402;-96.176;2023-04-07T09:16:42;98886.41;;;18.19;22.79
69689;BME280;56932;38.402;-96.176;2023-04-07T09:19:07;98888.03;;;18.32;22.68
69689;BME280;56932;38.402;-96.176;2023-04-07T09:23:58;98886.50;;;18.05;22.50
69689;BME280;56932;38.402;-96.176;2023-04-07T09:26:24;98882.30;;;18.63;22.39
69689;BME280;56932;38.402;-96.176;2023-04-07T09:28:51;98883.82;;;18.33;22.25
69689;BME280;56932;38.402;-96.176;2023-04-07T09:31:14;98887.44;;;18.60;22.81
69689;BME280;56932;38.402;-96.176;2023-04-07T09:33:40;98884.84;;;18.79;22.45
69689;BME280;56932;38.402;-96.176;2023-04-07T09:36:05;98884.01;;;18.04;22.68
69689;BME280;56932;38.402;-96.176;2023-04-07T09:38:35;98882.25;;;18.49;22.68
69689;BME280;56932;38.402;-96.176;2023-04-07T09:41:05;98883.29;;;17.75;22.73
69689;BME280;56932;38.402;-96.176;2023-04-07T09:43:21;98880.33;;;19.00;22.05
69689;BME280;56932;38.402;-96.176;2023-04-07T09:45:47;98888.35;;;17.43;22.96
69689;BME280;56932;38.402;-96.176;2023-04-07T09:48:17;98883.63;;;18.25;22.63
69689;BME280;56932;38.402;-96.176;2023-04-07T09:50:40;98884.64;;;18.58;22.58
69689;BME280;56932;38.402;-96.176;2023-04-07T09:53:04;98883.55;;;18.45;22.45
69689;BME280;56932;38.402;-96.176;2023-04-07T09:55:30;98887.00;;;17.77;23.20
69689;BME280;56932;38.402;-96.176;2023-04-07T09:57:56;98887.63;;;17.38;22.56
69689;BME280;56932;38.402;-96.176;2023-04-07T10:00:21;98888.84;;;17.96;23.08
69689;BME280;56932;38.402;-96.176;2023-04-07T10:02:47;98887.47;;;17.71;22.69
69689;BME280;56932;38.402;-96.176;2023-04-07T10:05:12;98887.42;;;17.70;23.30
69689;BME280;56932;38.402;-96.176;2023-04-07T10:07:38;98882.02;;;18.61;22.73
69689;BME280;56932;38.402;-96.176;2023-04-07T10:10:04;98883.42;;;18.17;22.68
69689;BME280;56932;38.402;-96.176;2023-04-07T10:12:29;98882.41;;;18.13;22.76
69689;BME280;56932;38.402;-96.176;2023-04-07T10:14:55;98882.74;;;17.44;22.70
69689;BME280;56932;38.402;-96.176;2023-04-07T10:17:21;98881.69;;;18.51;22.62
69689;BME280;56932;38.402;-96.176;2023-04-07T10:19:46;98883.87;;;17.40;23.01
69689;BME280;56932;38.402;-96.176;2023-04-07T10:22:11;98878.72;;;18.03;22.86
69689;BME280;56932;38.402;-96.176;2023-04-07T10:24:45;98882.27;;;17.99;23.06
69689;BME280;56932;38.402;-96.176;2023-04-07T10:27:05;98882.06;;;17.09;23.65
69689;BME280;56932;38.402;-96.176;2023-04-07T10:29:30;98886.00;;;18.37;22.94
69689;BME280;56932;38.402;-96.176;2023-04-07T10:31:53;98891.89;;;17.57;22.82
69689;BME280;56932;38.402;-96.176;2023-04-07T10:39:18;98893.17;;;18.41;22.48
69689;BME280;56932;38.402;-96.176;2023-04-07T10:41:36;98886.35;;;18.82;22.28
69689;BME280;56932;38.402;-96.176;2023-04-07T10:44:00;98888.32;;;18.44;22.65
69689;BME280;56932;38.402;-96.176;2023-04-07T10:51:17;98891.31;;;18.61;22.68
69689;BME280;56932;38.402;-96.176;2023-04-07T10:56:07;98893.10;;;18.69;22.36
69689;BME280;56932;38.402;-96.176;2023-04-07T10:58:33;98896.66;;;18.08;23.10
69689;BME280;56932;38.402;-96.176;2023-04-07T11:03:25;98895.21;;;18.06;22.86
69689;BME280;56932;38.402;-96.176;2023-04-07T11:05:50;98897.76;;;17.14;23.07
69689;BME280;56932;38.402;-96.176;2023-04-07T11:08:15;98901.02;;;18.14;22.58
69689;BME280;56932;38.402;-96.176;2023-04-07T11:10:46;98900.07;;;18.70;22.47
69689;BME280;56932;38.402;-96.176;2023-04-07T11:13:06;98899.68;;;17.84;22.79
69689;BME280;56932;38.402;-96.176;2023-04-07T11:15:32;98895.89;;;17.88;22.97
69689;BME280;56932;38.402;-96.176;2023-04-07T11:20:22;98892.64;;;18.09;22.78
69689;BME280;56932;38.402;-96.176;2023-04-07T11:25:21;98891.76;;;18.07;22.57
69689;BME280;56932;38.402;-96.176;2023-04-07T11:27:39;98896.27;;;18.41;22.68
69689;BME280;56932;38.402;-96.176;2023-04-07T11:30:08;98900.49;;;18.45;22.63
69689;BME280;56932;38.402;-96.176;2023-04-07T11:32:30;98899.24;;;17.26;23.63
69689;BME280;56932;38.402;-96.176;2023-04-07T11:34:57;98906.93;;;17.34;22.80
69689;BME280;56932;38.402;-96.176;2023-04-07T11:37:23;98905.51;;;18.01;22.84
69689;BME280;56932;38.402;-96.176;2023-04-07T11:39:52;98906.71;;;17.51;23.06
69689;BME280;56932;38.402;-96.176;2023-04-07T11:42:12;98912.92;;;17.99;22.85
69689;BME280;56932;38.402;-96.176;2023-04-07T11:44:44;98914.84;;;17.96;22.63
69689;BME280;56932;38.402;-96.176;2023-04-07T11:47:03;98916.76;;;18.37;22.68
69689;BME280;56932;38.402;-96.176;2023-04-07T11:49:29;98918.26;;;18.29;22.76
69689;BME280;56932;38.402;-96.176;2023-04-07T11:51:58;98914.68;;;16.78;23.00
69689;BME280;56932;38.402;-96.176;2023-04-07T11:54:20;98915.50;;;17.96;22.83
69689;BME280;56932;38.402;-96.176;2023-04-07T11:56:46;98915.11;;;17.53;22.97
69689;BME280;56932;38.402;-96.176;2023-04-07T11:59:17;98914.37;;;18.18;22.83
69689;BME280;56932;38.402;-96.176;2023-04-07T12:01:40;98917.55;;;18.08;22.93
69689;BME280;56932;38.402;-96.176;2023-04-07T12:04:03;98921.71;;;17.89;22.89
69689;BME280;56932;38.402;-96.176;2023-04-07T12:06:28;98923.29;;;17.94;22.87
69689;BME280;56932;38.402;-96.176;2023-04-07T12:08:53;98920.81;;;17.54;22.84
69689;BME280;56932;38.402;-96.176;2023-04-07T12:11:18;98924.40;;;17.88;23.24
69689;BME280;56932;38.402;-96.176;2023-04-07T12:13:44;98926.93;;;17.56;23.04
69689;BME280;56932;38.402;-96.176;2023-04-07T12:16:09;98924.54;;;17.89;23.02
69689;BME280;56932;38.402;-96.176;2023-04-07T12:18:34;98924.55;;;18.06;23.07
69689;BME280;56932;38.402;-96.176;2023-04-07T12:21:00;98925.29;;;17.32;23.34
69689;BME280;56932;38.402;-96.176;2023-04-07T12:23:25;98924.41;;;17.68;23.47
69689;BME280;56932;38.402;-96.176;2023-04-07T12:25:51;98926.90;;;17.05;23.28
69689;BME280;56932;38.402;-96.176;2023-04-07T12:28:16;98924.54;;;17.93;23.12
69689;BME280;56932;38.402;-96.176;2023-04-07T12:30:42;98923.48;;;17.52;23.26
69689;BME280;56932;38.402;-96.176;2023-04-07T12:33:07;98922.55;;;17.14;23.83
69689;BME280;56932;38.402;-96.176;2023-04-07T12:35:32;98935.00;;;17.87;23.15
69689;BME280;56932;38.402;-96.176;2023-04-07T12:37:58;98938.33;;;16.60;24.09
69689;BME280;56932;38.402;-96.176;2023-04-07T12:40:24;98941.03;;;17.73;23.46
69689;BME280;56932;38.402;-96.176;2023-04-07T12:42:49;98944.45;;;17.53;23.27
69689;BME280;56932;38.402;-96.176;2023-04-07T12:45:14;98942.86;;;16.64;24.26
69689;BME280;56932;38.402;-96.176;2023-04-07T12:47:41;98947.23;;;16.72;24.44
69689;BME280;56932;38.402;-96.176;2023-04-07T12:50:06;98950.77;;;17.11;23.68
69689;BME280;56932;38.402;-96.176;2023-04-07T12:52:31;98951.53;;;15.92;25.48